createdAt,value
2023-02-24T00:01:39.717Z,100560.13
2023-02-24T00:04:13.487Z,100557.28
2023-02-24T00:06:43.647Z,100556.16
2023-02-24T00:09:21.890Z,100548.03
2023-02-24T00:12:10.329Z,100557.88
2023-02-24T00:14:38.854Z,100540.19
2023-02-24T00:17:09.321Z,100549.78
2023-02-24T00:19:36.721Z,100559.81
2023-02-24T00:22:04.904Z,100556.06
2023-02-24T00:24:31.594Z,100550.44
2023-02-24T00:27:00.902Z,100545.78
2023-02-24T00:29:28.962Z,100548.91
2023-02-24T00:32:00.817Z,100544.34
2023-02-24T00:34:31.617Z,100546.25
2023-02-24T00:36:58.413Z,100539.34
2023-02-24T00:39:34.062Z,100549.34
2023-02-24T00:42:04.827Z,100539.81
2023-02-24T00:44:33.037Z,100535.59
2023-02-24T00:47:01.635Z,100540.81
2023-02-24T00:49:29.168Z,100532.66
2023-02-24T00:51:55.698Z,100533.47
2023-02-24T00:54:25.339Z,100524.94
2023-02-24T00:56:51.736Z,100530.03
2023-02-24T00:59:24.602Z,100526.63
2023-02-24T01:01:51.549Z,100533.78
2023-02-24T01:04:18.996Z,100527.59
2023-02-24T01:06:48.789Z,100530.03
2023-02-24T01:09:18.090Z,100530.09
2023-02-24T01:12:06.401Z,100524.78
2023-02-24T01:14:34.419Z,100526.78
2023-02-24T01:17:01.616Z,100521.50
2023-02-24T01:19:30.421Z,100517.31
2023-02-24T01:22:01.598Z,100512.41
2023-02-24T01:24:30.758Z,100520.28
2023-02-24T01:26:57.256Z,100517.66
2023-02-24T01:29:23.846Z,100518.53
2023-02-24T01:31:51.697Z,100510.88
2023-02-24T01:34:18.754Z,100514.19
2023-02-24T01:36:45.278Z,100496.88
2023-02-24T01:39:13.487Z,100497.06
2023-02-24T01:41:45.210Z,100503.31
2023-02-24T01:44:14.578Z,100500.81
2023-02-24T01:46:46.006Z,100485.44
2023-02-24T01:49:18.386Z,100488.44
2023-02-24T01:51:52.121Z,100481.59
2023-02-24T01:54:21.518Z,100478.22
2023-02-24T01:56:49.915Z,100472.91
2023-02-24T01:59:16.377Z,100466.16
2023-02-24T02:01:45.930Z,100460.13
2023-02-24T02:04:20.356Z,100461.03
2023-02-24T02:06:48.127Z,100452.63
2023-02-24T02:09:15.383Z,100462.28
2023-02-24T02:11:43.138Z,100457.94
2023-02-24T02:14:09.800Z,100456.03
2023-02-24T02:16:57.562Z,100459.31
2023-02-24T02:19:49.872Z,100455.13
2023-02-24T02:22:54.822Z,100454.81
2023-02-24T02:25:45.554Z,100449.66
2023-02-24T02:28:37.995Z,100456.28
2023-02-24T02:31:23.359Z,100446.72
2023-02-24T02:34:11.650Z,100450.00
2023-02-24T02:36:54.787Z,100449.94
2023-02-24T02:39:24.802Z,100443.00
2023-02-24T02:42:02.012Z,100441.06
2023-02-24T02:44:40.482Z,100434.31
2023-02-24T02:47:27.595Z,100432.53
2023-02-24T02:50:09.996Z,100432.53
2023-02-24T02:53:00.529Z,100429.81
2023-02-24T02:55:38.750Z,100420.34
2023-02-24T02:58:11.465Z,100415.03
2023-02-24T03:00:42.690Z,100425.34
2023-02-24T03:03:12.955Z,100419.31
2023-02-24T03:05:47.417Z,100413.97
2023-02-24T03:08:16.556Z,100413.28
2023-02-24T03:10:44.841Z,100406.25
2023-02-24T03:13:13.327Z,100400.22
2023-02-24T03:15:42.413Z,100389.06
2023-02-24T03:18:16.427Z,100389.88
2023-02-24T03:20:47.450Z,100376.94
2023-02-24T03:23:18.337Z,100381.41
2023-02-24T03:25:58.663Z,100375.50
2023-02-24T03:28:35.465Z,100370.34
2023-02-24T03:31:07.451Z,100370.34
2023-02-24T03:33:41.265Z,100362.72
2023-02-24T03:36:09.506Z,100359.19
2023-02-24T03:38:38.687Z,100351.53
2023-02-24T03:41:11.540Z,100350.81
2023-02-24T03:43:45.158Z,100346.38
2023-02-24T03:46:12.376Z,100349.91
2023-02-24T03:48:45.505Z,100341.41
2023-02-24T03:51:19.971Z,100343.22
2023-02-24T03:54:09.058Z,100344.13
2023-02-24T03:57:03.555Z,100343.16
2023-02-24T03:59:46.542Z,100337.19
2023-02-24T04:02:21.898Z,100337.13
2023-02-24T04:04:52.491Z,100327.56
2023-02-24T04:07:37.782Z,100336.25
2023-02-24T04:10:09.444Z,100337.06
2023-02-24T04:12:47.170Z,100335.38
2023-02-24T04:15:21.095Z,100324.03
2023-02-24T04:17:52.074Z,100331.75
2023-02-24T04:20:21.538Z,100334.34
2023-02-24T04:22:51.696Z,100330.97
2023-02-24T04:25:24.538Z,100320.81
2023-02-24T04:27:56.370Z,100325.00
2023-02-24T04:30:25.101Z,100315.53
2023-02-24T04:32:51.692Z,100318.72
2023-02-24T04:35:20.624Z,100314.09
2023-02-24T04:37:51.999Z,100314.91
2023-02-24T04:40:22.198Z,100304.59
2023-02-24T04:42:50.421Z,100305.56
2023-02-24T04:45:19.547Z,100303.72
2023-02-24T04:47:50.885Z,100301.22
2023-02-24T04:50:24.423Z,100297.84
2023-02-24T04:52:53.511Z,100295.28
2023-02-24T04:55:22.452Z,100285.78
2023-02-24T04:57:56.757Z,100284.03
2023-02-24T05:00:26.552Z,100290.88
2023-02-24T05:02:58.386Z,100276.94
2023-02-24T05:05:28.536Z,100277.06
2023-02-24T05:08:02.967Z,100265.16
2023-02-24T05:10:44.021Z,100275.38
2023-02-24T05:13:19.547Z,100274.28
2023-02-24T05:15:47.973Z,100268.34
2023-02-24T05:18:20.456Z,100258.16
2023-02-24T05:21:07.809Z,100259.13
2023-02-24T05:23:39.520Z,100254.84
2023-02-24T05:26:10.243Z,100248.75
2023-02-24T05:28:52.682Z,100253.03
2023-02-24T05:31:24.215Z,100251.22
2023-02-24T05:33:57.628Z,100247.56
2023-02-24T05:36:25.998Z,100238.16
2023-02-24T05:39:12.303Z,100230.34
2023-02-24T05:41:44.721Z,100226.84
2023-02-24T05:44:14.296Z,100218.16
2023-02-24T05:46:45.121Z,100213.91
2023-02-24T05:49:24.210Z,100207.81
2023-02-24T05:51:59.250Z,100207.53
2023-02-24T05:54:34.455Z,100208.41
2023-02-24T05:57:03.499Z,100200.47
2023-02-24T05:59:33.283Z,100193.72
2023-02-24T06:02:09.495Z,100191.94
2023-02-24T06:04:40.940Z,100194.38
2023-02-24T06:07:25.801Z,100193.44
2023-02-24T06:09:54.183Z,100182.09
2023-02-24T06:12:29.358Z,100182.97
2023-02-24T06:15:11.875Z,100181.94
2023-02-24T06:17:39.821Z,100181.13
2023-02-24T06:20:14.640Z,100173.56
2023-02-24T06:22:45.341Z,100177.69
2023-02-24T06:25:12.305Z,100167.41
2023-02-24T06:27:40.093Z,100160.28
2023-02-24T06:30:11.329Z,100167.97
2023-02-24T06:37:07.473Z,100163.72
2023-02-24T06:39:37.444Z,100166.16
2023-02-24T06:42:05.157Z,100161.88
2023-02-24T06:44:32.843Z,100160.34
2023-02-24T06:47:00.154Z,100158.88
2023-02-24T06:49:29.491Z,100157.25
2023-02-24T06:51:56.544Z,100156.47
2023-02-24T06:54:30.559Z,100147.16
2023-02-24T06:56:59.282Z,100149.88
2023-02-24T06:59:28.740Z,100155.97
2023-02-24T07:01:56.760Z,100154.47
2023-02-24T07:04:28.147Z,100140.81
2023-02-24T07:07:03.200Z,100138.53
2023-02-24T07:09:30.959Z,100149.03
2023-02-24T07:11:58.773Z,100141.31
2023-02-24T07:14:27.814Z,100133.53
2023-02-24T07:16:55.464Z,100136.09
2023-02-24T07:19:27.808Z,100132.78
2023-02-24T07:22:03.507Z,100125.81
2023-02-24T07:24:39.387Z,100126.75
2023-02-24T07:27:21.881Z,100116.53
2023-02-24T07:29:53.712Z,100102.88
2023-02-24T07:32:22.560Z,100122.81
2023-02-24T07:34:49.477Z,100106.63
2023-02-24T07:37:17.038Z,100104.13
2023-02-24T07:39:43.621Z,100090.47
2023-02-24T07:42:13.502Z,100092.81
2023-02-24T07:44:40.155Z,100088.69
2023-02-24T07:47:10.236Z,100079.22
2023-02-24T07:49:37.366Z,100069.81
2023-02-24T07:52:04.035Z,100061.34
2023-02-24T07:54:30.738Z,100065.75
2023-02-24T07:56:59.272Z,100059.22
2023-02-24T07:59:28.439Z,100049.75
2023-02-24T08:01:56.139Z,100049.81
2023-02-24T08:04:30.556Z,100040.59
2023-02-24T08:06:58.934Z,100036.41
2023-02-24T08:10:07.268Z,100037.28
2023-02-24T08:12:35.327Z,100026.91
2023-02-24T08:15:09.144Z,100025.97
2023-02-24T08:17:40.213Z,100025.28
2023-02-24T08:20:12.816Z,100018.63
2023-02-24T08:22:44.436Z,100017.72
2023-02-24T08:25:18.843Z,100009.28
2023-02-24T08:28:07.418Z,100012.72
2023-02-24T08:30:47.115Z,100003.50
2023-02-24T08:33:22.277Z,100001.00
2023-02-24T08:36:03.930Z,99996.59
2023-02-24T08:38:42.293Z,99998.41
2023-02-24T08:42:07.762Z,99989.34
2023-02-24T08:44:36.972Z,99984.28
2023-02-24T08:47:05.591Z,99975.66
2023-02-24T08:49:35.859Z,99980.75
2023-02-24T08:52:07.302Z,99977.38
2023-02-24T08:54:34.161Z,99971.41
2023-02-24T08:57:09.622Z,99968.84
2023-02-24T08:59:41.956Z,99965.31
2023-02-24T09:02:24.926Z,99958.47
2023-02-24T09:04:59.909Z,99958.72
2023-02-24T09:07:39.283Z,99955.97
2023-02-24T09:10:11.700Z,99942.41
2023-02-24T09:12:44.062Z,99943.28
2023-02-24T09:15:12.408Z,99939.41
2023-02-24T09:17:45.019Z,99934.97
2023-02-24T09:20:38.608Z,99929.75
2023-02-24T09:23:07.411Z,99930.44
2023-02-24T09:25:50.390Z,99926.19
2023-02-24T09:28:20.898Z,99922.78
2023-02-24T09:30:54.426Z,99926.94
2023-02-24T09:33:38.989Z,99916.50
2023-02-24T09:36:20.233Z,99909.63
2023-02-24T09:39:02.150Z,99907.75
2023-02-24T09:41:55.959Z,99902.56
2023-02-24T09:44:35.851Z,99893.00
2023-02-24T09:48:05.889Z,99899.16
2023-02-24T09:51:08.844Z,99895.66
2023-02-24T09:53:44.377Z,99892.81
2023-02-24T09:56:30.427Z,99886.81
2023-02-24T09:59:22.831Z,99894.66
2023-02-24T10:02:14.713Z,99888.63
2023-02-24T10:05:07.655Z,99880.09
2023-02-24T10:07:40.160Z,99878.47
2023-02-24T10:10:35.436Z,99871.56
2023-02-24T10:13:14.186Z,99870.69
2023-02-24T10:15:57.849Z,99859.44
2023-02-24T10:18:27.550Z,99868.78
2023-02-24T10:21:04.945Z,99856.00
2023-02-24T10:24:06.193Z,99857.75
2023-02-24T10:27:00.135Z,99856.88
2023-02-24T10:29:39.931Z,99848.22
2023-02-24T10:32:34.003Z,99849.09
2023-02-24T10:35:03.944Z,99844.56
2023-02-24T10:37:30.599Z,99847.13
2023-02-24T10:40:00.080Z,99840.97
2023-02-24T10:42:35.763Z,99836.78
2023-02-24T10:45:17.299Z,99827.88
2023-02-24T10:47:50.185Z,99826.78
2023-02-24T10:50:31.958Z,99837.63
2023-02-24T10:53:07.025Z,99822.81
2023-02-24T10:55:46.194Z,99813.09
2023-02-24T10:58:56.363Z,99818.09
2023-02-24T11:01:55.041Z,99810.91
2023-02-24T11:04:25.970Z,99797.94
2023-02-24T11:07:09.965Z,99796.13
2023-02-24T11:09:54.051Z,99787.47
2023-02-24T11:12:41.579Z,99784.81
2023-02-24T11:15:38.719Z,99785.56
2023-02-24T11:18:08.317Z,99772.38
2023-02-24T11:20:50.077Z,99757.63
2023-02-24T11:23:23.057Z,99755.06
2023-02-24T11:25:53.652Z,99746.47
2023-02-24T11:28:50.143Z,99742.09
2023-02-24T11:31:20.139Z,99740.38
2023-02-24T11:33:55.184Z,99730.94
2023-02-24T11:36:43.502Z,99716.41
2023-02-24T11:39:24.121Z,99710.19
2023-02-24T11:41:53.804Z,99710.88
2023-02-24T11:44:34.704Z,99704.63
2023-02-24T11:47:08.808Z,99694.22
2023-02-24T11:49:44.307Z,99683.97
2023-02-24T11:52:17.604Z,99683.72
2023-02-24T11:54:48.066Z,99674.91
2023-02-24T11:57:20.967Z,99674.66
2023-02-24T12:00:20.343Z,99661.88
2023-02-24T12:03:13.187Z,99655.56
2023-02-24T12:05:44.260Z,99648.56
2023-02-24T12:08:25.870Z,99647.69
2023-02-24T12:11:34.374Z,99644.16
2023-02-24T12:14:31.257Z,99629.50
2023-02-24T12:17:14.238Z,99621.81
2023-02-24T12:20:06.439Z,99613.13
2023-02-24T12:22:55.392Z,99604.03
2023-02-24T12:25:25.930Z,99616.00
2023-02-24T12:28:02.462Z,99602.28
2023-02-24T12:30:48.775Z,99589.38
2023-02-24T12:33:28.065Z,99578.31
2023-02-24T12:36:33.000Z,99573.97
2023-02-24T12:39:23.193Z,99577.31
2023-02-24T12:42:01.691Z,99565.28
2023-02-24T12:45:11.753Z,99557.75
2023-02-24T12:48:01.721Z,99559.50
2023-02-24T12:50:39.815Z,99556.00
2023-02-24T12:53:37.448Z,99553.44
2023-02-24T12:56:20.876Z,99542.97
2023-02-24T12:58:50.397Z,99539.72
2023-02-24T13:01:37.518Z,99542.25
2023-02-24T13:04:10.574Z,99527.72
2023-02-24T13:07:14.898Z,99522.81
2023-02-24T13:09:51.598Z,99523.69
2023-02-24T13:12:29.316Z,99513.56
2023-02-24T13:14:56.149Z,99506.72
2023-02-24T13:17:27.161Z,99504.03
2023-02-24T13:19:55.859Z,99497.97
2023-02-24T13:22:30.702Z,99499.66
2023-02-24T13:25:00.909Z,99492.00
2023-02-24T13:27:30.856Z,99485.06
2023-02-24T13:30:01.345Z,99486.88
2023-02-24T13:32:32.178Z,99475.75
2023-02-24T13:35:05.016Z,99474.94
2023-02-24T13:37:38.989Z,99470.47
2023-02-24T13:40:27.370Z,99473.88
2023-02-24T13:42:57.455Z,99459.47
2023-02-24T13:45:34.934Z,99453.50
2023-02-24T13:48:13.582Z,99443.94
2023-02-24T13:51:05.307Z,99446.56
2023-02-24T13:53:48.663Z,99440.56
2023-02-24T13:56:26.434Z,99440.56
2023-02-24T13:59:06.395Z,99422.47
2023-02-24T14:01:45.512Z,99425.53
2023-02-24T14:04:18.675Z,99426.22
2023-02-24T14:06:52.048Z,99422.91
2023-02-24T14:09:24.205Z,99415.25
2023-02-24T14:11:54.171Z,99420.50
2023-02-24T14:14:20.951Z,99414.63
2023-02-24T14:16:50.076Z,99417.28
2023-02-24T14:19:17.320Z,99416.56
2023-02-24T14:22:01.981Z,99408.88
2023-02-24T14:24:29.241Z,99402.09
2023-02-24T14:26:58.103Z,99409.88
2023-02-24T14:29:43.654Z,99402.22
2023-02-24T14:32:20.086Z,99405.72
2023-02-24T14:34:48.079Z,99400.75
2023-02-24T14:37:17.686Z,99398.34
2023-02-24T14:39:55.777Z,99394.09
2023-02-24T14:42:24.435Z,99386.44
2023-02-24T14:44:53.172Z,99371.91
2023-02-24T14:47:22.579Z,99380.25
2023-02-24T14:49:54.294Z,99368.41
2023-02-24T14:52:28.982Z,99366.66
2023-02-24T14:55:02.272Z,99364.09
2023-02-24T14:57:31.571Z,99366.53
2023-02-24T15:00:11.117Z,99363.28
2023-02-24T15:02:41.747Z,99359.78
2023-02-24T15:05:09.477Z,99352.06
2023-02-24T15:07:36.946Z,99351.25
2023-02-24T15:10:05.398Z,99344.44
2023-02-24T15:12:48.059Z,99334.81
2023-02-24T15:15:21.391Z,99333.16
2023-02-24T15:17:53.967Z,99324.66
2023-02-24T15:20:40.949Z,99335.75
2023-02-24T15:23:30.884Z,99327.97
2023-02-24T15:25:57.618Z,99325.41
2023-02-24T15:28:31.843Z,99318.50
2023-02-24T15:31:16.560Z,99328.09
2023-02-24T15:33:55.051Z,99324.53
2023-02-24T15:36:36.313Z,99315.06
2023-02-24T15:39:06.118Z,99318.44
2023-02-24T15:42:09.331Z,99302.31
2023-02-24T15:44:36.817Z,99306.47
2023-02-24T15:47:22.502Z,99300.41
2023-02-24T15:49:49.281Z,99303.81
2023-02-24T15:52:18.039Z,99294.59
2023-02-24T15:54:44.722Z,99288.75
2023-02-24T15:57:13.167Z,99271.72
2023-02-24T15:59:40.620Z,99266.59
2023-02-24T16:02:17.337Z,99265.06
2023-02-24T16:04:44.576Z,99258.06
2023-02-24T16:07:36.497Z,99259.03
2023-02-24T16:10:14.848Z,99254.72
2023-02-24T16:12:55.922Z,99252.91
2023-02-24T16:15:42.674Z,99240.84
2023-02-24T16:18:20.330Z,99246.63
2023-02-24T16:20:54.373Z,99238.03
2023-02-24T16:23:26.655Z,99245.81
2023-02-24T16:26:03.485Z,99250.88
2023-02-24T16:28:31.180Z,99252.72
2023-02-24T16:30:57.969Z,99244.25
2023-02-24T16:33:26.379Z,99249.47
2023-02-24T16:35:55.639Z,99254.63
2023-02-24T16:41:13.356Z,99247.91
2023-02-24T16:43:44.046Z,99235.88
2023-02-24T16:46:21.252Z,99231.66
2023-02-24T16:49:02.231Z,99238.50
2023-02-24T16:51:31.883Z,99231.75
2023-02-24T16:53:58.581Z,99237.81
2023-02-24T16:56:27.110Z,99223.34
2023-02-24T16:58:59.552Z,99239.72
2023-02-24T17:01:33.228Z,99225.25
2023-02-24T17:04:02.583Z,99216.66
2023-02-24T17:06:29.970Z,99211.53
2023-02-24T17:08:59.742Z,99212.44
2023-02-24T17:11:27.980Z,99215.00
2023-02-24T17:13:57.544Z,99209.88
2023-02-24T17:16:26.567Z,99212.50
2023-02-24T17:18:53.187Z,99207.31
2023-02-24T17:21:21.123Z,99215.00
2023-02-24T17:24:22.216Z,99211.56
2023-02-24T17:27:18.340Z,99209.00
2023-02-24T17:33:24.674Z,99209.66
2023-02-24T17:35:53.494Z,99205.47
2023-02-24T17:41:27.154Z,99205.47
2023-02-24T17:44:00.835Z,99191.69
2023-02-24T17:46:30.938Z,99195.28
2023-02-24T17:48:57.616Z,99196.22
2023-02-24T17:51:26.431Z,99195.28
2023-02-24T17:53:54.020Z,99185.03
2023-02-24T17:56:20.914Z,99191.91
2023-02-24T17:58:47.924Z,99190.25
2023-02-24T18:01:14.479Z,99185.13
2023-02-24T18:03:41.736Z,99172.38
2023-02-24T18:06:13.146Z,99164.56
2023-02-24T18:08:42.028Z,99151.75
2023-02-24T18:11:11.474Z,99143.97
2023-02-24T18:13:38.309Z,99150.75
2023-02-24T18:16:16.613Z,99154.94
2023-02-24T18:18:43.444Z,99146.41
2023-02-24T18:21:11.052Z,99158.25
2023-02-24T18:23:42.258Z,99153.03
2023-02-24T18:26:18.776Z,99157.16
2023-02-24T18:28:47.970Z,99148.53
2023-02-24T18:31:21.374Z,99153.72
2023-02-24T18:33:49.406Z,99141.75
2023-02-24T18:36:20.359Z,99150.31
2023-02-24T18:38:55.859Z,99146.06
2023-02-24T18:41:32.780Z,99137.53
2023-02-24T18:44:02.692Z,99146.19
2023-02-24T18:46:35.100Z,99140.97
2023-02-24T18:49:05.942Z,99124.69
2023-02-24T18:54:29.303Z,99123.09
2023-02-24T18:57:00.872Z,99122.22
2023-02-24T18:59:27.754Z,99123.19
2023-02-24T19:02:04.007Z,99110.34
2023-02-24T19:08:17.334Z,99102.53
2023-02-24T19:10:49.227Z,99109.38
2023-02-24T19:13:25.858Z,99111.22
2023-02-24T19:15:52.739Z,99114.59
2023-02-24T19:18:29.872Z,99096.63
2023-02-24T19:20:56.846Z,99095.66
2023-02-24T19:23:25.214Z,99103.38
2023-02-24T19:25:52.723Z,99103.38
2023-02-24T19:28:20.100Z,99094.94
2023-02-24T19:30:49.449Z,99100.06
2023-02-24T19:33:24.681Z,99096.69
2023-02-24T19:36:02.118Z,99086.41
2023-02-24T19:38:28.799Z,99088.06
2023-02-24T19:40:58.680Z,99084.66
2023-02-24T19:43:25.339Z,99088.22
2023-02-24T19:45:52.154Z,99089.03
2023-02-24T19:48:19.222Z,99090.88
2023-02-24T19:50:46.581Z,99091.69
2023-02-24T19:53:13.355Z,99084.81
2023-02-24T19:55:40.022Z,99080.56
2023-02-24T19:58:06.840Z,99084.91
2023-02-24T20:00:39.892Z,99079.81
2023-02-24T20:03:06.948Z,99089.31
2023-02-24T20:05:37.382Z,99087.63
2023-02-24T20:08:04.309Z,99101.31
2023-02-24T20:10:31.424Z,99100.53
2023-02-24T20:12:58.366Z,99098.84
2023-02-24T20:15:25.242Z,99103.06
2023-02-24T20:17:53.281Z,99100.50
2023-02-24T20:20:26.209Z,99099.72
2023-02-24T20:22:54.882Z,99102.44
2023-02-24T20:25:22.022Z,99102.53
2023-02-24T20:27:58.803Z,99105.19
2023-02-24T20:30:25.440Z,99106.06
2023-02-24T20:32:52.149Z,99104.50
2023-02-24T20:35:21.232Z,99105.50
2023-02-24T20:37:51.065Z,99103.78
2023-02-24T20:40:25.496Z,99100.50
2023-02-24T20:42:58.450Z,99103.06
2023-02-24T20:45:32.658Z,99107.25
2023-02-24T20:47:59.674Z,99108.00
2023-02-24T20:50:30.094Z,99108.00
2023-02-24T20:53:15.892Z,99108.00
2023-02-24T20:55:44.443Z,99113.13
2023-02-24T20:58:11.352Z,99104.56
2023-02-24T21:00:40.242Z,99098.44
2023-02-24T21:03:12.447Z,99095.16
2023-02-24T21:05:40.078Z,99102.84
2023-02-24T21:08:06.756Z,99095.16
2023-02-24T21:10:33.312Z,99096.75
2023-02-24T21:12:59.808Z,99088.94
2023-02-24T21:15:27.276Z,99092.47
2023-02-24T21:17:53.798Z,99092.38
2023-02-24T21:20:20.321Z,99089.00
2023-02-24T21:22:58.897Z,99099.38
2023-02-24T21:25:37.291Z,99096.94
2023-02-24T21:28:04.709Z,99098.53
2023-02-24T21:30:31.334Z,99101.09
2023-02-24T21:32:57.943Z,99094.31
2023-02-24T21:35:24.474Z,99092.56
2023-02-24T21:37:51.046Z,99082.31
2023-02-24T21:40:20.543Z,99079.72
2023-02-24T21:42:50.183Z,99072.84
2023-02-24T21:45:16.821Z,99076.38
2023-02-24T21:47:43.370Z,99066.06
2023-02-24T21:50:12.366Z,99066.97
2023-02-24T21:52:40.073Z,99065.31
2023-02-24T21:55:08.741Z,99064.53
2023-02-24T21:57:44.858Z,99052.59
2023-02-24T22:00:19.674Z,99052.66
2023-02-24T22:02:51.445Z,99056.19
2023-02-24T22:05:20.401Z,99049.25
2023-02-24T22:07:48.199Z,99045.94
2023-02-24T22:10:18.924Z,99048.56
2023-02-24T22:12:46.026Z,99056.31
2023-02-24T22:15:13.398Z,99043.44
2023-02-24T22:17:40.761Z,99058.84
2023-02-24T22:20:10.188Z,99063.97
2023-02-24T22:22:37.946Z,99056.19
2023-02-24T22:25:05.274Z,99048.47
2023-02-24T22:27:40.486Z,99048.28
2023-02-24T22:30:10.485Z,99052.28
2023-02-24T22:32:37.724Z,99054.69
2023-02-24T22:35:04.609Z,99060.69
2023-02-24T22:37:31.305Z,99070.84
2023-02-24T22:42:34.230Z,99046.66
2023-02-24T22:45:00.818Z,99062.91
2023-02-24T22:47:27.279Z,99063.78
2023-02-24T22:49:53.774Z,99058.50
2023-02-24T22:52:20.785Z,99056.00
2023-02-24T22:54:47.579Z,99060.28
2023-02-24T22:57:14.338Z,99054.28
2023-02-24T22:59:40.802Z,99056.00
2023-02-24T23:02:09.387Z,99057.63
2023-02-24T23:04:36.074Z,99042.34
2023-02-24T23:07:02.664Z,99049.22
2023-02-24T23:09:29.211Z,99051.84
2023-02-24T23:11:55.635Z,99053.63
2023-02-24T23:14:22.054Z,99045.09
2023-02-24T23:16:54.653Z,99045.94
2023-02-24T23:19:22.346Z,99044.97
2023-02-24T23:21:50.987Z,99038.97
2023-02-24T23:24:17.997Z,99049.31
2023-02-24T23:26:47.269Z,99036.53
2023-02-24T23:29:16.040Z,99045.84
2023-02-24T23:31:42.913Z,99039.91
2023-02-24T23:34:10.491Z,99059.66
2023-02-24T23:36:38.658Z,99045.94
2023-02-24T23:39:07.055Z,99040.88
2023-02-24T23:41:34.785Z,99042.59
2023-02-24T23:44:01.208Z,99038.31
2023-02-24T23:46:27.664Z,99039.25
2023-02-24T23:48:54.376Z,99035.88
2023-02-24T23:51:21.088Z,99034.13
2023-02-24T23:53:48.357Z,99028.13
2023-02-24T23:56:22.187Z,99025.75
2023-02-24T23:58:53.546Z,99029.97
